Terminal Aerodrome Forecast
Issued by NWS Knoxville/Tri Cities, TN

Home | Current Version | Previous Version | Text Only | Print | Product List | Glossary On
Versions: 1 2 3 4 5 6 7 8 9 10 11 12 13 14 15 16 17 18 19 20 21 22 23 24 25 26 27 28 29 30 31 32 33 34 35 36 37 38 39
000
FTUS44 KMRX 041120
TAFTYS
TAF
KTYS 041120Z 0412/0512 26005KT P6SM SCT080
     FM041600 25012KT P6SM SCT060
     FM042100 25012G20KT P6SM VCSH OVC060
     FM050000 26012KT 5SM -SHRA OVC025
     FM050600 25010KT P6SM BKN035=

USA.gov is the U.S. government's official web portal to all federal, state and local government web resources and services.